createdAt,value
2023-03-11T00:00:18.303Z,99.90
2023-03-11T00:02:47.503Z,99.90
2023-03-11T00:05:19.413Z,99.90
2023-03-11T00:07:46.454Z,99.90
2023-03-11T00:10:18.716Z,99.90
2023-03-11T00:12:45.573Z,99.90
2023-03-11T00:15:12.923Z,99.90
2023-03-11T00:17:39.989Z,99.90
2023-03-11T00:20:07.662Z,99.90
2023-03-11T00:22:34.553Z,99.90
2023-03-11T00:25:01.370Z,99.90
2023-03-11T00:27:28.204Z,99.90
2023-03-11T00:29:54.938Z,99.90
2023-03-11T00:32:21.817Z,99.90
2023-03-11T00:34:48.611Z,99.90
2023-03-11T00:37:15.562Z,99.90
2023-03-11T00:39:42.345Z,99.90
2023-03-11T00:42:11.168Z,99.90
2023-03-11T00:44:39.155Z,99.90
2023-03-11T00:47:06.383Z,99.90
2023-03-11T00:49:33.321Z,99.90
2023-03-11T00:52:00.250Z,99.90
2023-03-11T00:54:28.105Z,99.90
2023-03-11T00:56:55.010Z,99.90
2023-03-11T00:59:22.069Z,99.90
2023-03-11T01:01:49.059Z,99.90
2023-03-11T01:04:15.962Z,99.90
2023-03-11T01:06:45.644Z,99.90
2023-03-11T01:09:12.797Z,99.90
2023-03-11T01:11:39.596Z,99.90
2023-03-11T01:14:08.358Z,99.90
2023-03-11T01:16:35.244Z,99.90
2023-03-11T01:19:02.056Z,99.90
2023-03-11T01:21:28.870Z,99.90
2023-03-11T01:23:55.706Z,99.90
2023-03-11T01:26:22.573Z,99.90
2023-03-11T01:28:49.361Z,99.90
2023-03-11T01:31:16.354Z,99.90
2023-03-11T01:33:43.193Z,99.90
2023-03-11T01:36:10.057Z,99.90
2023-03-11T01:38:37.084Z,99.90
2023-03-11T01:41:04.145Z,99.90
2023-03-11T01:43:39.692Z,99.90
2023-03-11T01:46:26.164Z,99.90
2023-03-11T01:49:02.244Z,99.90
2023-03-11T01:51:33.515Z,99.90
2023-03-11T01:54:05.096Z,99.90
2023-03-11T01:56:32.936Z,99.90
2023-03-11T01:59:00.129Z,99.90
2023-03-11T02:01:27.014Z,99.90
2023-03-11T02:03:56.550Z,99.90
2023-03-11T02:06:24.369Z,99.90
2023-03-11T02:08:51.863Z,99.90
2023-03-11T02:11:26.766Z,99.90
2023-03-11T02:13:58.899Z,99.90
2023-03-11T02:16:26.249Z,99.90
2023-03-11T02:18:53.147Z,99.90
2023-03-11T02:21:26.846Z,99.90
2023-03-11T02:23:58.254Z,99.90
2023-03-11T02:26:49.616Z,99.90
2023-03-11T02:29:18.896Z,99.90
2023-03-11T02:31:48.103Z,99.90
2023-03-11T02:34:23.129Z,99.90
2023-03-11T02:36:49.989Z,99.90
2023-03-11T02:39:34.618Z,99.90
2023-03-11T02:42:06.078Z,99.90
2023-03-11T02:44:33.413Z,99.90
2023-03-11T02:47:01.237Z,99.90
2023-03-11T02:49:30.066Z,99.90
2023-03-11T02:51:56.868Z,99.90
2023-03-11T02:54:24.002Z,99.90
2023-03-11T02:56:50.882Z,99.90
2023-03-11T02:59:18.802Z,99.90
2023-03-11T03:01:46.298Z,99.90
2023-03-11T03:04:13.213Z,99.90
2023-03-11T03:06:40.016Z,99.90
2023-03-11T03:09:06.971Z,99.90
2023-03-11T03:11:33.716Z,99.90
2023-03-11T03:14:00.554Z,99.90
2023-03-11T03:16:27.458Z,99.90
2023-03-11T03:18:54.840Z,99.90
2023-03-11T03:21:21.672Z,99.90
2023-03-11T03:23:48.780Z,99.90
2023-03-11T03:26:16.337Z,99.90
2023-03-11T03:28:46.271Z,99.90
2023-03-11T03:31:13.840Z,99.90
2023-03-11T03:33:42.805Z,99.90
2023-03-11T03:36:12.539Z,99.90
2023-03-11T03:38:46.675Z,99.90
2023-03-11T03:41:15.678Z,99.90
2023-03-11T03:43:42.966Z,99.90
2023-03-11T03:46:10.439Z,99.90
2023-03-11T03:48:45.316Z,99.90
2023-03-11T03:51:13.970Z,99.90
2023-03-11T03:53:50.530Z,99.90
2023-03-11T03:56:18.407Z,99.90
2023-03-11T03:58:45.233Z,99.90
2023-03-11T04:01:12.922Z,99.90
2023-03-11T04:03:40.763Z,99.90
2023-03-11T04:06:11.256Z,99.90
2023-03-11T04:08:39.812Z,99.90
2023-03-11T04:11:08.068Z,99.90
2023-03-11T04:13:36.559Z,99.90
2023-03-11T04:16:06.081Z,99.90
2023-03-11T04:18:33.947Z,99.90
2023-03-11T04:21:04.540Z,99.90
2023-03-11T04:23:31.454Z,99.90
2023-03-11T04:25:59.310Z,99.90
2023-03-11T04:28:26.320Z,99.90
2023-03-11T04:30:53.315Z,99.90
2023-03-11T04:33:20.856Z,99.90
2023-03-11T04:35:47.695Z,99.90
2023-03-11T04:38:14.667Z,99.90
2023-03-11T04:40:41.479Z,99.90
2023-03-11T04:43:08.658Z,99.90
2023-03-11T04:45:38.940Z,99.90
2023-03-11T04:48:06.978Z,99.90
2023-03-11T04:50:34.438Z,99.90
2023-03-11T04:53:01.309Z,99.90
2023-03-11T04:55:29.030Z,99.90
2023-03-11T04:57:55.908Z,99.90
2023-03-11T05:00:24.952Z,99.90
2023-03-11T05:03:00.124Z,99.90
2023-03-11T05:05:27.302Z,99.90
2023-03-11T05:07:54.164Z,99.90
2023-03-11T05:10:22.637Z,99.90
2023-03-11T05:12:52.886Z,99.90
2023-03-11T05:15:21.897Z,99.90
2023-03-11T05:17:48.762Z,99.90
2023-03-11T05:20:16.739Z,99.90
2023-03-11T05:22:43.635Z,99.90
2023-03-11T05:25:10.998Z,99.90
2023-03-11T05:27:38.308Z,99.90
2023-03-11T05:30:07.563Z,99.90
2023-03-11T05:32:36.309Z,99.90
2023-03-11T05:35:05.667Z,99.90
2023-03-11T05:37:32.787Z,99.90
2023-03-11T05:40:02.168Z,99.90
2023-03-11T05:42:29.348Z,99.90
2023-03-11T05:44:57.831Z,99.90
2023-03-11T05:47:25.638Z,99.90
2023-03-11T05:49:52.864Z,99.90
2023-03-11T05:52:20.515Z,99.90
2023-03-11T05:54:52.390Z,99.90
2023-03-11T05:57:22.972Z,99.90
2023-03-11T05:59:49.927Z,99.90
2023-03-11T06:02:16.859Z,99.90
2023-03-11T06:04:44.159Z,99.90
2023-03-11T06:07:12.176Z,99.90
2023-03-11T06:09:39.647Z,99.90
2023-03-11T06:12:10.664Z,99.90
2023-03-11T06:14:54.484Z,99.90
2023-03-11T06:17:21.744Z,99.90
2023-03-11T06:19:48.621Z,99.90
2023-03-11T06:22:16.013Z,99.90
2023-03-11T06:24:42.904Z,99.90
2023-03-11T06:27:11.147Z,99.90
2023-03-11T06:29:40.324Z,99.90
2023-03-11T06:32:07.362Z,99.90
2023-03-11T06:34:34.111Z,99.90
2023-03-11T06:37:01.866Z,99.90
2023-03-11T06:39:28.732Z,99.90
2023-03-11T06:41:55.711Z,99.90
2023-03-11T06:44:22.561Z,99.90
2023-03-11T06:46:49.447Z,99.90
2023-03-11T06:49:17.530Z,99.90
2023-03-11T06:51:44.939Z,99.90
2023-03-11T06:54:13.908Z,99.90
2023-03-11T06:56:40.900Z,99.90
2023-03-11T06:59:09.198Z,99.90
2023-03-11T07:01:36.486Z,99.90
2023-03-11T07:04:05.615Z,99.90
2023-03-11T07:06:33.695Z,99.90
2023-03-11T07:09:13.004Z,99.90
2023-03-11T07:11:43.174Z,99.90
2023-03-11T07:14:14.506Z,99.90
2023-03-11T07:16:46.068Z,99.90
2023-03-11T07:19:23.262Z,99.90
2023-03-11T07:21:50.137Z,99.90
2023-03-11T07:24:16.926Z,99.90
2023-03-11T07:26:44.591Z,99.90
2023-03-11T07:29:11.501Z,99.90
2023-03-11T07:31:38.954Z,99.90
2023-03-11T07:34:11.624Z,99.90
2023-03-11T07:36:41.092Z,99.90
2023-03-11T07:39:08.373Z,99.90
2023-03-11T07:41:43.548Z,99.90
2023-03-11T07:44:16.195Z,99.90
2023-03-11T07:46:44.307Z,99.90
2023-03-11T07:49:11.917Z,99.90
2023-03-11T07:51:45.960Z,99.90
2023-03-11T07:54:16.518Z,99.90
2023-03-11T07:56:43.743Z,99.90
2023-03-11T07:59:10.652Z,99.90
2023-03-11T08:01:40.570Z,99.90
2023-03-11T08:04:12.929Z,99.90
2023-03-11T08:06:42.901Z,99.90
2023-03-11T08:09:10.283Z,99.90
2023-03-11T08:11:37.639Z,99.90
2023-03-11T08:14:05.149Z,99.90
2023-03-11T08:16:32.119Z,99.90
2023-03-11T08:18:59.070Z,99.90
2023-03-11T08:21:29.008Z,99.90
2023-03-11T08:24:00.405Z,99.90
2023-03-11T08:26:27.766Z,99.90
2023-03-11T08:28:56.094Z,99.90
2023-03-11T08:31:33.768Z,99.90
2023-03-11T08:34:11.448Z,99.90
2023-03-11T08:36:38.456Z,99.90
2023-03-11T08:39:05.345Z,99.90
2023-03-11T08:41:32.706Z,99.90
2023-03-11T08:43:59.563Z,99.90
2023-03-11T08:46:35.790Z,99.90
2023-03-11T08:49:03.379Z,99.90
2023-03-11T08:51:32.720Z,99.90
2023-03-11T08:54:00.815Z,99.90
2023-03-11T08:56:28.171Z,99.90
2023-03-11T08:58:55.118Z,99.90
2023-03-11T09:01:23.488Z,99.90
2023-03-11T09:03:50.341Z,99.90
2023-03-11T09:06:17.989Z,99.90
2023-03-11T09:08:45.985Z,99.90
2023-03-11T09:11:13.864Z,99.90
2023-03-11T09:13:41.778Z,99.90
2023-03-11T09:16:13.548Z,99.90
2023-03-11T09:18:40.712Z,99.90
2023-03-11T09:21:08.274Z,99.90
2023-03-11T09:23:35.280Z,99.90
2023-03-11T09:26:02.027Z,99.90
2023-03-11T09:28:28.987Z,99.90
2023-03-11T09:30:55.853Z,99.90
2023-03-11T09:33:22.889Z,99.90
2023-03-11T09:35:49.956Z,99.90
2023-03-11T09:38:16.891Z,99.90
2023-03-11T09:41:00.729Z,99.90
2023-03-11T09:43:58.775Z,99.90
2023-03-11T09:46:46.536Z,99.90
2023-03-11T09:49:42.085Z,99.90
2023-03-11T09:52:15.999Z,99.90
2023-03-11T09:54:50.914Z,99.90
2023-03-11T09:57:34.727Z,99.90
2023-03-11T10:00:04.985Z,99.90
2023-03-11T10:02:40.598Z,99.90
2023-03-11T10:05:19.863Z,99.90
2023-03-11T10:07:54.049Z,99.90
2023-03-11T10:10:22.132Z,99.90
2023-03-11T10:12:58.765Z,99.90
2023-03-11T10:15:48.275Z,99.90
2023-03-11T10:18:52.457Z,99.90
2023-03-11T10:21:40.273Z,99.90
2023-03-11T10:24:45.639Z,99.90
2023-03-11T10:27:29.121Z,99.90
2023-03-11T10:30:29.060Z,99.90
2023-03-11T10:33:32.836Z,99.90
2023-03-11T10:36:06.207Z,99.90
2023-03-11T10:38:46.694Z,99.90
2023-03-11T10:41:38.273Z,99.90
2023-03-11T10:44:07.314Z,99.40
2023-03-11T10:46:34.077Z,97.90
2023-03-11T10:49:00.886Z,98.00
2023-03-11T10:51:35.879Z,98.60
2023-03-11T10:54:03.801Z,97.80
2023-03-11T10:56:32.376Z,98.50
2023-03-11T10:58:59.753Z,98.20
2023-03-11T11:01:28.904Z,97.30
2023-03-11T11:03:58.337Z,97.90
2023-03-11T11:06:26.641Z,97.60
2023-03-11T11:09:16.946Z,98.20
2023-03-11T11:12:05.242Z,98.20
2023-03-11T11:14:52.528Z,98.20
2023-03-11T11:17:23.353Z,97.90
2023-03-11T11:19:52.041Z,97.60
2023-03-11T11:22:22.246Z,96.30
2023-03-11T11:24:54.434Z,97.30
2023-03-11T11:27:27.087Z,95.70
2023-03-11T11:30:23.980Z,96.50
2023-03-11T11:32:53.674Z,97.20
2023-03-11T11:35:25.571Z,97.20
2023-03-11T11:38:00.972Z,96.90
2023-03-11T11:40:32.959Z,96.10
2023-03-11T11:43:10.508Z,96.80
2023-03-11T11:45:37.272Z,96.80
2023-03-11T11:48:48.595Z,94.60
2023-03-11T11:51:20.728Z,94.50
2023-03-11T11:54:05.120Z,94.70
2023-03-11T11:56:32.048Z,95.00
2023-03-11T11:58:58.800Z,93.60
2023-03-11T12:01:44.896Z,93.40
2023-03-11T12:04:12.126Z,94.50
2023-03-11T12:06:47.728Z,94.70
2023-03-11T12:09:30.802Z,93.60
2023-03-11T12:12:21.000Z,93.50
2023-03-11T12:15:13.810Z,92.50
2023-03-11T12:17:44.065Z,92.10
2023-03-11T12:20:20.782Z,91.70
2023-03-11T12:23:06.440Z,91.90
2023-03-11T12:25:35.992Z,91.30
2023-03-11T12:28:21.213Z,92.50
2023-03-11T12:30:54.817Z,92.00
2023-03-11T12:33:28.460Z,91.30
2023-03-11T12:35:58.366Z,91.60
2023-03-11T12:38:34.475Z,91.10
2023-03-11T12:41:13.514Z,91.70
2023-03-11T12:43:40.289Z,91.50
2023-03-11T12:46:17.394Z,90.30
2023-03-11T12:48:49.662Z,88.80
2023-03-11T12:51:34.688Z,88.00
2023-03-11T12:54:22.587Z,87.30
2023-03-11T12:56:57.035Z,87.60
2023-03-11T12:59:42.079Z,87.00
2023-03-11T13:02:39.274Z,87.70
2023-03-11T13:05:24.712Z,88.70
2023-03-11T13:08:10.035Z,89.00
2023-03-11T13:10:42.843Z,88.30
2023-03-11T13:13:24.997Z,90.60
2023-03-11T13:15:52.795Z,91.10
2023-03-11T13:18:28.295Z,91.10
2023-03-11T13:21:02.793Z,84.20
2023-03-11T13:23:34.599Z,80.60
2023-03-11T13:26:18.893Z,78.50
2023-03-11T13:29:14.484Z,79.20
2023-03-11T13:31:44.687Z,79.00
2023-03-11T13:34:14.735Z,81.40
2023-03-11T13:37:06.341Z,82.40
2023-03-11T13:39:57.718Z,79.50
2023-03-11T13:42:29.252Z,80.80
2023-03-11T13:44:57.632Z,79.40
2023-03-11T13:47:26.214Z,79.10
2023-03-11T13:50:01.039Z,79.70
2023-03-11T13:52:36.709Z,81.80
2023-03-11T13:55:08.955Z,77.10
2023-03-11T13:57:37.776Z,75.50
2023-03-11T14:00:28.429Z,76.10
2023-03-11T14:03:02.335Z,74.00
2023-03-11T14:05:34.797Z,75.00
2023-03-11T14:08:26.923Z,75.70
2023-03-11T14:10:54.899Z,74.30
2023-03-11T14:13:23.316Z,75.10
2023-03-11T14:16:10.734Z,73.60
2023-03-11T14:18:42.566Z,73.60
2023-03-11T14:21:28.194Z,72.60
2023-03-11T14:23:55.896Z,72.30
2023-03-11T14:26:23.807Z,71.70
2023-03-11T14:28:54.242Z,69.60
2023-03-11T14:31:35.967Z,69.70
2023-03-11T14:34:23.311Z,69.60
2023-03-11T14:36:54.085Z,70.00
2023-03-11T14:39:34.657Z,68.60
2023-03-11T14:42:31.772Z,68.60
2023-03-11T14:45:15.215Z,67.90
2023-03-11T14:47:50.566Z,68.60
2023-03-11T14:50:24.255Z,66.80
2023-03-11T14:53:03.061Z,67.00
2023-03-11T14:55:36.336Z,67.60
2023-03-11T14:58:11.493Z,67.20
2023-03-11T15:00:43.020Z,67.20
2023-03-11T15:03:31.659Z,68.00
2023-03-11T15:06:00.668Z,68.60
2023-03-11T15:08:30.508Z,69.40
2023-03-11T15:11:28.986Z,69.40
2023-03-11T15:14:44.993Z,69.00
2023-03-11T15:17:35.249Z,69.30
2023-03-11T15:20:07.388Z,68.10
2023-03-11T15:22:40.923Z,67.40
2023-03-11T15:25:17.498Z,67.90
2023-03-11T15:27:44.489Z,67.90
2023-03-11T15:30:20.433Z,67.50
2023-03-11T15:32:48.676Z,66.20
2023-03-11T15:35:19.692Z,66.00
2023-03-11T15:37:48.407Z,66.20
2023-03-11T15:40:42.292Z,67.50
2023-03-11T15:43:16.996Z,66.30
2023-03-11T15:45:44.093Z,66.90
2023-03-11T15:48:12.451Z,67.00
2023-03-11T15:50:53.735Z,66.80
2023-03-11T15:53:23.037Z,67.00
2023-03-11T15:55:50.050Z,67.40
2023-03-11T15:58:19.262Z,67.10
2023-03-11T16:00:51.649Z,67.80
2023-03-11T16:03:19.800Z,67.90
2023-03-11T16:05:47.294Z,68.60
2023-03-11T16:08:14.463Z,68.10
2023-03-11T16:10:41.746Z,69.10
2023-03-11T16:13:18.374Z,68.30
2023-03-11T16:15:47.023Z,67.60
2023-03-11T16:18:13.979Z,67.40
2023-03-11T16:20:44.677Z,67.50
2023-03-11T16:23:50.231Z,67.90
2023-03-11T16:26:18.315Z,68.50
2023-03-11T16:28:46.303Z,68.30
2023-03-11T16:31:13.162Z,68.30
2023-03-11T16:33:40.092Z,68.70
2023-03-11T16:36:07.538Z,68.50
2023-03-11T16:38:50.065Z,68.60
2023-03-11T16:41:18.243Z,69.30
2023-03-11T16:43:45.422Z,69.50
2023-03-11T16:46:14.193Z,70.00
2023-03-11T16:48:40.989Z,70.90
2023-03-11T16:51:08.377Z,71.50
2023-03-11T16:53:35.115Z,71.90
2023-03-11T16:56:02.299Z,72.40
2023-03-11T16:58:29.060Z,72.60
2023-03-11T17:00:56.315Z,72.90
2023-03-11T17:03:24.019Z,73.10
2023-03-11T17:06:00.100Z,73.20
2023-03-11T17:08:26.922Z,73.50
2023-03-11T17:10:53.893Z,73.30
2023-03-11T17:13:20.779Z,73.60
2023-03-11T17:16:00.423Z,74.30
2023-03-11T17:18:27.569Z,74.30
2023-03-11T17:20:54.462Z,74.40
2023-03-11T17:23:21.359Z,75.10
2023-03-11T17:25:48.148Z,75.20
2023-03-11T17:28:15.025Z,75.70
2023-03-11T17:30:44.086Z,75.70
2023-03-11T17:33:11.367Z,75.60
2023-03-11T17:35:38.315Z,76.40
2023-03-11T17:38:05.573Z,75.90
2023-03-11T17:40:32.689Z,76.40
2023-03-11T17:42:59.769Z,76.80
2023-03-11T17:45:27.058Z,76.80
2023-03-11T17:47:53.918Z,77.20
2023-03-11T17:50:20.813Z,77.40
2023-03-11T17:52:47.750Z,77.70
2023-03-11T17:55:14.606Z,78.50
2023-03-11T17:57:45.481Z,79.10
2023-03-11T18:00:14.893Z,79.40
2023-03-11T18:02:41.958Z,79.50
2023-03-11T18:05:09.359Z,79.70
2023-03-11T18:07:38.959Z,80.40
2023-03-11T18:10:07.438Z,80.40
2023-03-11T18:12:34.966Z,80.50
2023-03-11T18:15:06.054Z,80.40
2023-03-11T18:17:34.289Z,80.20
2023-03-11T18:20:01.382Z,79.90
2023-03-11T18:22:28.453Z,80.40
2023-03-11T18:24:55.282Z,79.80
2023-03-11T18:27:22.250Z,79.50
2023-03-11T18:29:49.006Z,79.20
2023-03-11T18:32:16.584Z,78.90
2023-03-11T18:34:43.959Z,80.00
2023-03-11T18:37:10.765Z,79.00
2023-03-11T18:39:37.669Z,79.20
2023-03-11T18:42:05.683Z,79.80
2023-03-11T18:44:32.511Z,80.50
2023-03-11T18:46:59.344Z,80.90
2023-03-11T18:49:26.197Z,81.30
2023-03-11T18:51:53.115Z,81.70
2023-03-11T18:54:19.912Z,82.10
2023-03-11T18:56:46.714Z,82.50
2023-03-11T18:59:14.467Z,83.10
2023-03-11T19:01:41.475Z,83.60
2023-03-11T19:04:10.059Z,84.20
2023-03-11T19:06:37.363Z,84.30
2023-03-11T19:09:06.073Z,85.60
2023-03-11T19:11:32.893Z,84.90
2023-03-11T19:13:59.979Z,85.70
2023-03-11T19:16:27.290Z,85.50
2023-03-11T19:18:55.140Z,85.30
2023-03-11T19:21:22.903Z,86.60
2023-03-11T19:23:55.008Z,85.90
2023-03-11T19:26:33.868Z,85.70
2023-03-11T19:29:09.249Z,85.60
2023-03-11T19:31:36.055Z,86.00
2023-03-11T19:34:03.045Z,86.20
2023-03-11T19:36:30.106Z,87.40
2023-03-11T19:38:57.106Z,87.40
2023-03-11T19:41:23.919Z,87.70
2023-03-11T19:43:50.798Z,87.70
2023-03-11T19:46:20.748Z,87.30
2023-03-11T19:48:47.799Z,86.30
2023-03-11T19:51:15.108Z,86.10
2023-03-11T19:53:42.452Z,86.60
2023-03-11T19:56:09.958Z,87.20
2023-03-11T19:58:37.086Z,87.40
2023-03-11T20:01:04.243Z,87.10
2023-03-11T20:03:31.609Z,87.90
2023-03-11T20:06:04.715Z,88.30
2023-03-11T20:08:36.407Z,87.90
2023-03-11T20:11:04.638Z,87.70
2023-03-11T20:13:31.893Z,86.90
2023-03-11T20:16:13.872Z,86.90
2023-03-11T20:18:41.100Z,87.40
2023-03-11T20:21:10.819Z,86.90
2023-03-11T20:23:38.692Z,86.30
2023-03-11T20:26:13.824Z,86.30
2023-03-11T20:28:41.322Z,85.80
2023-03-11T20:31:12.335Z,86.30
2023-03-11T20:33:39.408Z,85.60
2023-03-11T20:36:08.283Z,86.20
2023-03-11T20:38:35.798Z,86.30
2023-03-11T20:41:06.164Z,85.70
2023-03-11T20:43:33.937Z,85.00
2023-03-11T20:46:01.309Z,85.00
2023-03-11T20:48:28.683Z,85.10
2023-03-11T20:51:00.281Z,84.90
2023-03-11T20:53:27.362Z,84.00
2023-03-11T20:55:54.251Z,83.60
2023-03-11T20:58:21.392Z,83.40
2023-03-11T21:00:48.179Z,83.60
2023-03-11T21:03:15.064Z,84.40
2023-03-11T21:05:42.235Z,85.10
2023-03-11T21:08:09.212Z,84.90
2023-03-11T21:10:36.184Z,84.90
2023-03-11T21:13:03.676Z,85.10
2023-03-11T21:15:30.956Z,85.00
2023-03-11T21:17:58.177Z,85.20
2023-03-11T21:20:25.205Z,85.50
2023-03-11T21:22:52.154Z,86.00
2023-03-11T21:25:19.147Z,86.60
2023-03-11T21:27:46.016Z,86.80
2023-03-11T21:30:13.424Z,87.10
2023-03-11T21:32:40.511Z,87.50
2023-03-11T21:35:07.802Z,87.70
2023-03-11T21:37:34.815Z,87.70
2023-03-11T21:40:01.827Z,87.50
2023-03-11T21:42:30.159Z,87.50
2023-03-11T21:44:57.137Z,87.30
2023-03-11T21:47:24.079Z,87.00
2023-03-11T21:49:51.257Z,86.60
2023-03-11T21:52:18.254Z,86.80
2023-03-11T21:54:45.150Z,86.80
2023-03-11T21:57:12.238Z,87.50
2023-03-11T21:59:39.090Z,87.80
2023-03-11T22:02:06.603Z,88.50
2023-03-11T22:04:33.736Z,89.30
2023-03-11T22:07:00.754Z,89.80
2023-03-11T22:09:28.105Z,90.30
2023-03-11T22:11:56.211Z,90.40
2023-03-11T22:14:23.688Z,90.30
2023-03-11T22:16:51.170Z,90.40
2023-03-11T22:19:18.267Z,90.20
2023-03-11T22:21:45.481Z,90.30
2023-03-11T22:24:12.342Z,90.40
2023-03-11T22:26:39.244Z,90.40
2023-03-11T22:29:08.623Z,90.30
2023-03-11T22:31:35.811Z,90.20
2023-03-11T22:34:02.645Z,90.10
2023-03-11T22:36:29.592Z,90.20
2023-03-11T22:38:56.886Z,90.10
2023-03-11T22:41:24.192Z,90.10
2023-03-11T22:43:51.043Z,90.10
2023-03-11T22:46:18.356Z,90.20
2023-03-11T22:48:45.167Z,90.20
2023-03-11T22:51:12.917Z,90.20
2023-03-11T22:53:39.789Z,90.20
2023-03-11T22:56:08.985Z,90.30
2023-03-11T22:58:35.869Z,90.30
2023-03-11T23:01:03.988Z,90.40
2023-03-11T23:03:32.640Z,90.50
2023-03-11T23:06:04.483Z,90.60
2023-03-11T23:08:31.398Z,90.70
2023-03-11T23:11:02.564Z,90.60
2023-03-11T23:13:30.884Z,90.80
2023-03-11T23:16:04.033Z,90.90
2023-03-11T23:18:30.868Z,91.20
2023-03-11T23:20:57.620Z,91.80
2023-03-11T23:23:24.833Z,91.20
2023-03-11T23:25:51.628Z,91.70
2023-03-11T23:28:18.642Z,91.20
2023-03-11T23:30:45.574Z,91.00
2023-03-11T23:33:12.611Z,90.70
2023-03-11T23:35:41.711Z,90.50
2023-03-11T23:38:09.034Z,90.40
2023-03-11T23:40:35.960Z,90.20
2023-03-11T23:43:02.775Z,90.00
2023-03-11T23:45:29.551Z,89.50
2023-03-11T23:47:56.615Z,89.50
2023-03-11T23:50:23.390Z,89.10
2023-03-11T23:52:50.218Z,89.10
2023-03-11T23:55:17.136Z,88.70
2023-03-11T23:57:44.018Z,88.90
